CDT,Max TemperatureF,Mean TemperatureF,Min TemperatureF,Max Dew PointF,MeanDew PointF,Min DewpointF,Max Humidity, Mean Humidity, Min Humidity, Max Sea Level PressureIn, Mean Sea Level PressureIn, Min Sea Level PressureIn, Max VisibilityMiles, Mean VisibilityMiles, Min VisibilityMiles, Max Wind SpeedMPH, Mean Wind SpeedMPH, Max Gust SpeedMPH,PrecipitationIn, CloudCover, Events, WindDirDegrees
2011-10-1,94,84,73,72,68,64,84,64,44,30.11,30.06,30.00,10,10,5,18,7,24,0.13,3,Rain,52
2011-10-2,91,80,68,64,59,53,84,57,29,30.17,30.12,30.08,10,10,10,17,6,25,0.00,1,,62
2011-10-3,91,78,65,59,56,49,78,52,26,30.18,30.12,30.06,10,10,10,17,6,22,0.00,0,,73
2011-10-4,92,79,65,65,60,55,84,57,30,30.17,30.09,30.01,10,10,10,20,7,25,0.00,1,,84
2011-10-5,94,82,70,67,64,61,79,59,38,30.06,30.00,29.91,10,10,10,22,10,30,0.00,1,,118
2011-10-6,96,84,71,70,65,61,79,55,30,29.97,29.91,29.83,10,10,10,22,11,36,0.00,1,,130
2011-10-7,98,87,75,74,70,66,82,60,38,29.95,29.92,29.85,10,10,10,26,14,31,0.00,2,,129
2011-10-8,92,84,75,74,71,67,87,68,49,29.94,29.88,29.80,10,10,10,28,16,33,0.07,3,Rain,125
2011-10-9,95,85,75,72,70,66,87,64,41,29.92,29.84,29.78,10,10,6,28,11,36,0.05,3,Rain,97
2011-10-10,89,81,73,70,69,65,87,69,50,29.99,29.93,29.87,10,10,10,16,8,20,0.00,6,,17
2011-10-11,89,80,71,70,68,64,93,70,46,29.93,29.88,29.81,10,10,10,14,6,17,T,2,Rain,69
2011-10-12,95,84,73,71,68,63,87,62,36,29.84,29.78,29.70,10,10,10,16,8,24,0.00,0,,148
2011-10-13,95,82,69,72,66,48,93,60,26,29.92,29.86,29.81,10,10,10,22,7,31,0.00,1,,64
2011-10-14,94,79,63,64,57,47,87,54,20,29.99,29.93,29.87,10,10,10,15,4,20,0.00,0,,91
2011-10-15,92,78,64,66,59,55,84,57,30,30.04,29.98,29.93,10,10,10,17,5,21,0.00,0,,69
2011-10-16,95,82,68,69,65,61,87,60,33,30.06,30.00,29.91,10,10,10,15,6,18,0.00,1,,68
2011-10-17,96,83,69,69,64,59,84,57,30,29.97,29.85,29.73,10,10,10,20,5,24,0.00,0,,140
2011-10-18,88,78,68,70,55,35,87,52,16,30.12,29.89,29.70,10,10,10,29,14,37,0.00,2,,347
2011-10-19,84,69,54,39,33,26,54,33,12,30.21,30.13,30.07,10,10,10,21,8,25,0.00,0,,329
2011-10-20,89,72,54,58,48,38,66,45,24,30.13,30.06,29.98,10,10,10,23,10,30,0.00,0,,146
2011-10-21,91,79,67,64,61,58,73,56,38,30.10,30.05,30.00,10,10,10,24,13,31,0.00,0,,146
2011-10-22,91,80,68,65,62,58,81,58,34,30.07,30.01,29.93,10,10,10,23,13,31,0.00,0,,140
2011-10-23,94,82,69,63,60,55,73,51,28,,,,10,10,10,18,11,25,0.00,0,,147
2011-10-24,93,78,62,65,60,55,90,60,30,30.16,30.11,30.05,10,10,10,20,8,24,0.00,0,,139
2011-10-25,92,79,65,65,60,52,81,54,26,30.13,30.06,29.97,10,10,10,24,11,28,0.00,0,,141
2011-10-26,92,79,65,65,62,56,93,62,30,29.99,29.90,29.81,10,10,10,25,12,30,0.00,0,,145
2011-10-27,94,81,68,66,62,52,79,55,30,29.95,29.80,29.71,10,10,10,26,13,33,0.00,0,,147
2011-10-28,75,68,60,50,44,41,56,44,31,30.28,30.14,29.98,10,10,10,24,15,32,0.00,4,,336
2011-10-29,75,63,50,49,41,31,74,47,19,30.35,30.23,30.12,10,10,10,14,7,18,0.00,0,,24
2011-10-30,84,69,53,56,52,47,83,60,37,30.15,30.09,30.02,10,10,10,16,5,20,0.00,0,,100
2011-10-31,86,74,62,57,55,52,78,56,34,30.20,30.14,30.08,10,10,10,16,5,21,0.00,0,,100